Buoy 52912

sailwx.info

Track history (hours):
 
Tides and Currents Weather Stations Pressure Air Temp Water Temp Dewpoint Dewpoint Depression Visibility Wind Speed Wind Dir Waves Ship Positions

Drifting buoy 52912

Last reported at 2014-Oct-02 08:00 UTC. Time now 2014-Oct-02 12:32 UTC.
Position N 07°02' E 157°27'.

Water temperature 29.6 ° C

Date/timePositionNaut miles runAvg speedWind from/ knotsBaromVisibWave heightAir tempDewpointWater temp
2014-Oct-02 08:00N 07°02' E 157°27'0 0.0 29.6
2014-Oct-02 07:00N 07°02' E 157°27'7 0.9 29.6
2014-Oct-01 23:00N 06°56' E 157°22'2 0.2 29.7
2014-Oct-01 16:00N 06°55' E 157°21'6 0.3 29.8
2014-Sep-30 23:00N 06°50' E 157°25'0 0.0 29.9
2014-Sep-30 22:00N 06°50' E 157°25'1 0.4 29.8
2014-Sep-30 20:00N 06°49' E 157°25'2 0.8 29.8
2014-Sep-30 18:00N 06°51' E 157°26'1 0.5 29.8
2014-Sep-30 16:00N 06°52' E 157°26'0 0.0 29.8
2014-Sep-30 15:00N 06°52' E 157°26'2 0.5 29.8
2014-Sep-30 11:00N 06°53' E 157°28'0 0.1 29.8
2014-Sep-30 10:00N 06°53' E 157°28'3 0.9 29.8
2014-Sep-30 07:00N 06°56' E 157°29'1 0.7 30.0
2014-Sep-30 05:00N 06°56' E 157°30'7 3.5 30.2
2014-Sep-30 03:00N 07°01' E 157°26'0 0.1 30.2
2014-Sep-30 00:00N 07°01' E 157°26'0 0.0 30.0
2014-Sep-29 23:00N 07°01' E 157°26'0 0.0 29.8
2014-Sep-29 22:00N 07°01' E 157°26'2 0.9 29.8
2014-Sep-29 20:00N 07°03' E 157°25'1 0.6 29.7
2014-Sep-29 19:00N 07°03' E 157°24'3 0.7 29.7
2014-Sep-29 14:00N 07°05' E 157°22'3 1.5 29.6
2014-Sep-29 12:00N 07°07' E 157°19'2 0.8 29.7
2014-Sep-29 10:00N 07°07' E 157°18'9 2.3 29.8
2014-Sep-29 06:00N 07°08' E 157°08'0 0.0 29.8
2014-Sep-29 02:00N 07°08' E 157°08'2 0.6 29.8
2014-Sep-28 23:00N 07°07' E 157°07'2 1.9 29.8
2014-Sep-28 22:00N 07°07' E 157°05'1 0.5 29.8
2014-Sep-28 19:00N 07°06' E 157°03'2 0.7 29.8
2014-Sep-28 16:00N 07°05' E 157°01'0 0.1 29.8
2014-Sep-28 15:00N 07°06' E 157°01'4 0.9 29.8
2014-Sep-28 11:00N 07°05' E 156°58'0 0.0 29.9
2014-Sep-28 09:00N 07°05' E 156°58'1 1.4 29.9
2014-Sep-28 08:00N 07°05' E 156°57'0 0.5 29.9
2014-Sep-28 07:00N 07°05' E 156°56'1 0.7 29.9
2014-Sep-28 06:00N 07°04' E 156°57'2 1.8 29.9
2014-Sep-28 05:00N 07°03' E 156°55'1 0.7 29.9
2014-Sep-28 04:00N 07°03' E 156°55'1 0.2 29.9
2014-Sep-27 20:00N 07°02' E 156°54'0 0.2 29.8
2014-Sep-27 17:00N 07°02' E 156°54'1 0.7 29.8
2014-Sep-27 16:00N 07°01' E 156°54'0 0.0 29.8
2014-Sep-27 15:00N 07°01' E 156°54'0 0.0 29.8
2014-Sep-27 14:00N 07°01' E 156°54'3 0.3 29.8
2014-Sep-27 06:00N 07°02' E 156°56'1 0.7 29.9
2014-Sep-27 04:00N 07°03' E 156°57'0 0.1 29.8
2014-Sep-27 02:00N 07°03' E 156°58'2 1.0 29.8
2014-Sep-27 00:00N 07°04' E 156°60'2 1.6 29.8
2014-Sep-26 23:00N 07°05' E 157°00'0 0.0 29.8
2014-Sep-26 20:00N 07°05' E 157°00'0 0.0 29.7
2014-Sep-26 19:00N 07°05' E 157°00'1 1.0 29.7
2014-Sep-26 18:00N 07°06' E 157°00'0 0.0 29.6
2014-Sep-26 17:00N 07°06' E 157°00'1 0.4 29.8
2014-Sep-26 15:00N 07°07' E 157°01'2 0.4 30.0
2014-Sep-26 11:00N 07°08' E 157°01'1 0.7 30.0
2014-Sep-26 10:00N 07°09' E 157°01'2 0.6 30.0
2014-Sep-26 07:00N 07°11' E 157°01'1 0.4 30.1
2014-Sep-26 04:00N 07°12' E 157°00'1 0.6 30.2
2014-Sep-26 03:00N 07°12' E 156°60'0 0.1 30.2
2014-Sep-26 02:00N 07°12' E 156°60'1 0.3 30.2
2014-Sep-25 23:00N 07°13' E 156°60'1 0.2 30.2
2014-Sep-25 17:00N 07°14' E 156°59'1 0.7 30.2
2014-Sep-25 15:00N 07°14' E 156°58'1 0.4 30.3
2014-Sep-25 12:00N 07°15' E 156°59'0 0.0 30.4
2014-Sep-25 11:00N 07°15' E 156°59'0 0.4 30.5
2014-Sep-25 10:00N 07°15' E 156°58'2 1.0 30.7
2014-Sep-25 08:00N 07°17' E 156°57'1 0.3 31.0
2014-Sep-25 05:00N 07°17' E 156°56'1 0.9 31.7
2014-Sep-25 04:00N 07°18' E 156°56'0 0.0 31.8
2014-Sep-25 03:00N 07°18' E 156°56'0 0.0 32.1
2014-Sep-25 02:00N 07°18' E 156°56'2 0.8 32.0
2014-Sep-25 00:00N 07°19' E 156°54'0 0.0 31.3
2014-Sep-24 23:00N 07°19' E 156°54'0 0.3 30.3
2014-Sep-24 22:00N 07°19' E 156°54'0 0.1 30.2
2014-Sep-24 20:00N 07°19' E 156°54'0 0.1 29.9
2014-Sep-24 19:00N 07°19' E 156°54'1 1.0 29.9
2014-Sep-24 18:00N 07°19' E 156°53'0 0.1 29.9
2014-Sep-24 15:00N 07°19' E 156°53'1 0.2 30.0
2014-Sep-24 10:00N 07°18' E 156°52'1 0.3 30.0
2014-Sep-24 05:00N 07°18' E 156°51'1 0.5 30.6
2014-Sep-24 03:00N 07°17' E 156°50'2 0.2 30.6
2014-Sep-23 20:00N 07°19' E 156°50'0 0.1 29.9
2014-Sep-23 19:00N 07°19' E 156°50'0 0.3 29.9
2014-Sep-23 18:00N 07°19' E 156°50'0 0.0 29.9
2014-Sep-23 17:00N 07°19' E 156°50'0 0.0 29.9
2014-Sep-23 16:00N 07°19' E 156°50'1 0.3 29.9
2014-Sep-23 11:00N 07°19' E 156°52'0 0.2 30.0
2014-Sep-23 09:00N 07°19' E 156°51'1 0.3 30.0
2014-Sep-23 07:00N 07°19' E 156°52'0 0.0 30.0
2014-Sep-23 05:00N 07°19' E 156°52'0 0.2 30.1
2014-Sep-23 03:00N 07°19' E 156°51'0 0.0 30.4
2014-Sep-23 02:00N 07°19' E 156°51'2 0.3 30.6
2014-Sep-22 19:00N 07°20' E 156°53'2 2.1 30.0
2014-Sep-22 18:00N 07°22' E 156°53'0 0.0 30.0
2014-Sep-22 16:00N 07°22' E 156°53'2 0.4 30.0
2014-Sep-22 12:00N 07°24' E 156°54'   30.0
Track history (hours):
 
Tides and Currents Weather Stations Pressure Air Temp Water Temp Dewpoint Dewpoint Depression Visibility Wind Speed Wind Dir Waves Ship Positions

Drifting buoy 52912

Last reported at 2014-Oct-02 08:00 UTC. Time now 2014-Oct-02 12:32 UTC.
Position N 07°02' E 157°27'.

Water temperature 29.6 ° C

Date/timePositionNaut miles runAvg speedWind from/ knotsBaromVisibWave heightAir tempDewpointWater temp
2014-Oct-02 08:00N 07°02' E 157°27'0 0.0 29.6
2014-Oct-02 07:00N 07°02' E 157°27'7 0.9 29.6
2014-Oct-01 23:00N 06°56' E 157°22'2 0.2 29.7
2014-Oct-01 16:00N 06°55' E 157°21'6 0.3 29.8
2014-Sep-30 23:00N 06°50' E 157°25'0 0.0 29.9
2014-Sep-30 22:00N 06°50' E 157°25'1 0.4 29.8
2014-Sep-30 20:00N 06°49' E 157°25'2 0.8 29.8
2014-Sep-30 18:00N 06°51' E 157°26'1 0.5 29.8
2014-Sep-30 16:00N 06°52' E 157°26'0 0.0 29.8
2014-Sep-30 15:00N 06°52' E 157°26'2 0.5 29.8
2014-Sep-30 11:00N 06°53' E 157°28'0 0.1 29.8
2014-Sep-30 10:00N 06°53' E 157°28'3 0.9 29.8
2014-Sep-30 07:00N 06°56' E 157°29'1 0.7 30.0
2014-Sep-30 05:00N 06°56' E 157°30'7 3.5 30.2
2014-Sep-30 03:00N 07°01' E 157°26'0 0.1 30.2
2014-Sep-30 00:00N 07°01' E 157°26'0 0.0 30.0
2014-Sep-29 23:00N 07°01' E 157°26'0 0.0 29.8
2014-Sep-29 22:00N 07°01' E 157°26'2 0.9 29.8
2014-Sep-29 20:00N 07°03' E 157°25'1 0.6 29.7
2014-Sep-29 19:00N 07°03' E 157°24'3 0.7 29.7
2014-Sep-29 14:00N 07°05' E 157°22'3 1.5 29.6
2014-Sep-29 12:00N 07°07' E 157°19'2 0.8 29.7
2014-Sep-29 10:00N 07°07' E 157°18'9 2.3 29.8
2014-Sep-29 06:00N 07°08' E 157°08'0 0.0 29.8
2014-Sep-29 02:00N 07°08' E 157°08'2 0.6 29.8
2014-Sep-28 23:00N 07°07' E 157°07'2 1.9 29.8
2014-Sep-28 22:00N 07°07' E 157°05'1 0.5 29.8
2014-Sep-28 19:00N 07°06' E 157°03'2 0.7 29.8
2014-Sep-28 16:00N 07°05' E 157°01'0 0.1 29.8
2014-Sep-28 15:00N 07°06' E 157°01'4 0.9 29.8
2014-Sep-28 11:00N 07°05' E 156°58'0 0.0 29.9
2014-Sep-28 09:00N 07°05' E 156°58'1 1.4 29.9
2014-Sep-28 08:00N 07°05' E 156°57'0 0.5 29.9
2014-Sep-28 07:00N 07°05' E 156°56'1 0.7 29.9
2014-Sep-28 06:00N 07°04' E 156°57'2 1.8 29.9
2014-Sep-28 05:00N 07°03' E 156°55'1 0.7 29.9
2014-Sep-28 04:00N 07°03' E 156°55'1 0.2 29.9
2014-Sep-27 20:00N 07°02' E 156°54'0 0.2 29.8
2014-Sep-27 17:00N 07°02' E 156°54'1 0.7 29.8
2014-Sep-27 16:00N 07°01' E 156°54'0 0.0 29.8
2014-Sep-27 15:00N 07°01' E 156°54'0 0.0 29.8
2014-Sep-27 14:00N 07°01' E 156°54'3 0.3 29.8
2014-Sep-27 06:00N 07°02' E 156°56'1 0.7 29.9
2014-Sep-27 04:00N 07°03' E 156°57'0 0.1 29.8
2014-Sep-27 02:00N 07°03' E 156°58'2 1.0 29.8
2014-Sep-27 00:00N 07°04' E 156°60'2 1.6 29.8
2014-Sep-26 23:00N 07°05' E 157°00'0 0.0 29.8
2014-Sep-26 20:00N 07°05' E 157°00'0 0.0 29.7
2014-Sep-26 19:00N 07°05' E 157°00'1 1.0 29.7
2014-Sep-26 18:00N 07°06' E 157°00'0 0.0 29.6
2014-Sep-26 17:00N 07°06' E 157°00'1 0.4 29.8
2014-Sep-26 15:00N 07°07' E 157°01'2 0.4 30.0
2014-Sep-26 11:00N 07°08' E 157°01'1 0.7 30.0
2014-Sep-26 10:00N 07°09' E 157°01'2 0.6 30.0
2014-Sep-26 07:00N 07°11' E 157°01'1 0.4 30.1
2014-Sep-26 04:00N 07°12' E 157°00'1 0.6 30.2
2014-Sep-26 03:00N 07°12' E 156°60'0 0.1 30.2
2014-Sep-26 02:00N 07°12' E 156°60'1 0.3 30.2
2014-Sep-25 23:00N 07°13' E 156°60'1 0.2 30.2
2014-Sep-25 17:00N 07°14' E 156°59'1 0.7 30.2
2014-Sep-25 15:00N 07°14' E 156°58'1 0.4 30.3
2014-Sep-25 12:00N 07°15' E 156°59'0 0.0 30.4
2014-Sep-25 11:00N 07°15' E 156°59'0 0.4 30.5
2014-Sep-25 10:00N 07°15' E 156°58'2 1.0 30.7
2014-Sep-25 08:00N 07°17' E 156°57'1 0.3 31.0
2014-Sep-25 05:00N 07°17' E 156°56'1 0.9 31.7
2014-Sep-25 04:00N 07°18' E 156°56'0 0.0 31.8
2014-Sep-25 03:00N 07°18' E 156°56'0 0.0 32.1
2014-Sep-25 02:00N 07°18' E 156°56'2 0.8 32.0
2014-Sep-25 00:00N 07°19' E 156°54'0 0.0 31.3
2014-Sep-24 23:00N 07°19' E 156°54'0 0.3 30.3
2014-Sep-24 22:00N 07°19' E 156°54'0 0.1 30.2
2014-Sep-24 20:00N 07°19' E 156°54'0 0.1 29.9
2014-Sep-24 19:00N 07°19' E 156°54'1 1.0 29.9
2014-Sep-24 18:00N 07°19' E 156°53'0 0.1 29.9
2014-Sep-24 15:00N 07°19' E 156°53'1 0.2 30.0
2014-Sep-24 10:00N 07°18' E 156°52'1 0.3 30.0
2014-Sep-24 05:00N 07°18' E 156°51'1 0.5 30.6
2014-Sep-24 03:00N 07°17' E 156°50'2 0.2 30.6
2014-Sep-23 20:00N 07°19' E 156°50'0 0.1 29.9
2014-Sep-23 19:00N 07°19' E 156°50'0 0.3 29.9
2014-Sep-23 18:00N 07°19' E 156°50'0 0.0 29.9
2014-Sep-23 17:00N 07°19' E 156°50'0 0.0 29.9
2014-Sep-23 16:00N 07°19' E 156°50'1 0.3 29.9
2014-Sep-23 11:00N 07°19' E 156°52'0 0.2 30.0
2014-Sep-23 09:00N 07°19' E 156°51'1 0.3 30.0
2014-Sep-23 07:00N 07°19' E 156°52'0 0.0 30.0
2014-Sep-23 05:00N 07°19' E 156°52'0 0.2 30.1
2014-Sep-23 03:00N 07°19' E 156°51'0 0.0 30.4
2014-Sep-23 02:00N 07°19' E 156°51'2 0.3 30.6
2014-Sep-22 19:00N 07°20' E 156°53'2 2.1 30.0
2014-Sep-22 18:00N 07°22' E 156°53'0 0.0 30.0
2014-Sep-22 16:00N 07°22' E 156°53'2 0.4 30.0
2014-Sep-22 12:00N 07°24' E 156°54'   30.0

Dump ship's entire track history